Time;durP1;ratioP1;P1;durP2;ratioP2;P2;SDS_P1;SDS_P2;PMS_P1;PMS_P2;Temp;Humidity;BMP_temperature;BMP_pressure;BME280_temperature;BME280_humidity;BME280_pressure;Samples;Min_cycle;Max_cycle;Signal;HPM_P1;HPM_P2
2022/01/26 02:50:15;;;;;;;62.95;26.08;;;4.80;99.90;;;;;;5034550;28;20609;-76
2022/01/26 02:52:54;;;;;;;57.17;25.63;;;4.80;99.90;;;;;;5034213;28;20232;-73
2022/01/26 02:55:35;;;;;;;56.60;24.67;;;4.80;99.90;;;;;;5024369;28;20215;-75
2022/01/26 03:01:06;;;;;;;51.03;24.98;;;4.80;99.90;;;;;;5012724;28;20338;-73
2022/01/26 03:03:38;;;;;;;56.08;27.50;;;4.80;99.90;;;;;;5029844;28;20283;-76
2022/01/26 03:06:10;;;;;;;57.13;25.73;;;4.90;99.90;;;;;;5031662;28;20678;-76
2022/01/26 03:08:41;;;;;;;58.10;23.63;;;5.00;99.90;;;;;;5027394;28;20212;-72
2022/01/26 03:11:13;;;;;;;61.78;25.35;;;5.10;99.90;;;;;;5022343;28;20223;-73
2022/01/26 03:13:41;;;;;;;53.28;24.42;;;4.90;99.90;;;;;;5030861;28;20202;-75
2022/01/26 03:16:13;;;;;;;52.88;24.83;;;4.90;99.90;;;;;;5031007;28;20524;-74
2022/01/26 03:18:56;;;;;;;53.65;23.25;;;4.80;99.90;;;;;;5031133;28;20303;-72
2022/01/26 03:21:30;;;;;;;62.65;24.88;;;4.80;99.90;;;;;;5028286;28;20231;-73
2022/01/26 03:29:41;;;;;;;50.88;23.98;;;4.70;99.90;;;;;;5037930;28;20215;-71
2022/01/26 03:34:55;;;;;;;50.22;24.02;;;4.70;99.90;;;;;;5023420;28;20211;-72
2022/01/26 03:37:27;;;;;;;48.55;24.17;;;4.60;99.90;;;;;;5032668;28;20212;-74
2022/01/26 03:39:54;;;;;;;44.55;18.88;;;4.70;99.90;;;;;;5032226;28;20311;-75
2022/01/26 03:42:23;;;;;;;53.47;22.25;;;4.70;99.90;;;;;;5033293;28;20227;-74
2022/01/26 03:44:53;;;;;;;41.05;20.08;;;4.70;99.90;;;;;;5032861;28;20262;-75
2022/01/26 03:47:20;;;;;;;44.50;20.85;;;4.70;99.90;;;;;;5037515;28;20586;-74
2022/01/26 03:49:48;;;;;;;41.10;18.33;;;4.70;99.90;;;;;;5036312;28;20200;-75
2022/01/26 03:52:14;;;;;;;39.55;18.52;;;4.70;99.90;;;;;;5033040;28;20216;-76
2022/01/26 03:54:42;;;;;;;40.17;19.70;;;4.70;99.90;;;;;;5036731;28;20203;-78
2022/01/26 03:57:09;;;;;;;38.88;17.25;;;4.60;99.90;;;;;;5042030;28;20239;-73
2022/01/26 03:59:37;;;;;;;42.15;17.77;;;4.60;99.90;;;;;;5039432;28;20258;-73
2022/01/26 04:02:05;;;;;;;33.17;17.88;;;4.60;99.90;;;;;;5026643;28;20239;-71
2022/01/26 04:04:37;;;;;;;40.22;19.88;;;4.60;99.90;;;;;;5044871;28;20200;-71
2022/01/26 04:07:06;;;;;;;36.33;17.98;;;4.60;99.90;;;;;;5040179;28;20224;-73
2022/01/26 04:09:32;;;;;;;37.50;16.48;;;4.70;99.90;;;;;;5039200;28;20200;-76
2022/01/26 04:12:00;;;;;;;30.77;14.98;;;4.60;99.90;;;;;;5036767;28;20581;-74
2022/01/26 04:14:30;;;;;;;36.92;16.40;;;4.60;99.90;;;;;;5030182;28;20572;-72
2022/01/26 04:16:59;;;;;;;32.83;14.45;;;4.60;99.90;;;;;;5036438;28;20200;-76
2022/01/26 04:19:28;;;;;;;27.52;15.25;;;4.70;99.90;;;;;;5035754;28;20746;-75
2022/01/26 04:22:06;;;;;;;27.13;14.70;;;4.70;99.90;;;;;;5037118;28;20228;-72
2022/01/26 04:24:37;;;;;;;31.92;15.48;;;4.60;99.90;;;;;;5041451;28;20568;-71
2022/01/26 04:27:13;;;;;;;30.48;14.63;;;4.50;99.90;;;;;;5040482;28;20195;-72
2022/01/26 04:29:40;;;;;;;31.50;15.50;;;4.60;99.90;;;;;;5039593;28;20200;-73
2022/01/26 04:32:10;;;;;;;24.80;13.00;;;4.50;99.90;;;;;;5036380;28;20220;-74
2022/01/26 04:34:37;;;;;;;26.45;13.18;;;4.60;99.90;;;;;;5035467;28;20204;-75
2022/01/26 04:37:12;;;;;;;30.48;14.45;;;4.60;99.90;;;;;;5033698;28;20270;-72
2022/01/26 04:39:44;;;;;;;30.40;13.00;;;4.60;99.90;;;;;;5035430;28;20635;-74
2022/01/26 04:42:15;;;;;;;30.73;15.43;;;4.60;99.90;;;;;;5035611;28;20251;-73
2022/01/26 04:44:48;;;;;;;31.45;15.40;;;4.50;99.90;;;;;;5035498;28;20211;-71
2022/01/26 04:47:16;;;;;;;30.13;14.38;;;4.60;99.90;;;;;;5035707;28;20651;-73
2022/01/26 04:49:44;;;;;;;34.47;15.88;;;4.60;99.90;;;;;;5034433;28;20540;-75
2022/01/26 04:52:13;;;;;;;30.58;16.48;;;4.70;99.90;;;;;;5022131;28;20340;-75
2022/01/26 04:54:40;;;;;;;33.90;15.77;;;4.60;99.90;;;;;;5019840;28;20531;-74
2022/01/26 04:57:07;;;;;;;26.40;16.50;;;4.50;99.90;;;;;;5032272;28;20246;-72
2022/01/26 04:59:35;;;;;;;27.98;15.20;;;4.60;99.90;;;;;;5033286;28;20208;-73
2022/01/26 05:02:02;;;;;;;30.63;17.65;;;4.60;99.90;;;;;;5035191;28;20678;-74
2022/01/26 05:04:30;;;;;;;34.30;16.40;;;4.60;99.90;;;;;;5035477;28;20216;-76
2022/01/26 05:06:57;;;;;;;36.30;19.50;;;4.60;99.90;;;;;;5035178;28;20250;-72
2022/01/26 05:09:24;;;;;;;32.40;15.57;;;4.60;99.90;;;;;;5035146;28;20299;-72
2022/01/26 05:11:52;;;;;;;40.05;17.02;;;4.50;99.90;;;;;;5034472;28;20273;-74
2022/01/26 05:14:19;;;;;;;36.65;16.88;;;4.50;99.90;;;;;;5035008;28;20655;-76
2022/01/26 05:16:47;;;;;;;33.58;16.48;;;4.40;99.90;;;;;;5035274;28;20200;-74
2022/01/26 05:19:13;;;;;;;49.72;20.15;;;4.40;99.90;;;;;;5035453;28;20631;-74
2022/01/26 05:21:58;;;;;;;41.60;16.90;;;4.40;99.90;;;;;;5034472;28;20293;-73
2022/01/26 05:24:25;;;;;;;36.95;16.85;;;4.40;99.90;;;;;;5036003;28;20251;-74
2022/01/26 05:26:52;;;;;;;48.05;17.30;;;4.50;99.90;;;;;;5036251;28;20287;-74
2022/01/26 05:29:19;;;;;;;40.13;17.42;;;4.40;99.90;;;;;;5035097;28;20193;-75
2022/01/26 05:31:46;;;;;;;38.00;18.63;;;4.40;99.90;;;;;;5034826;28;20219;-75
2022/01/26 05:34:13;;;;;;;34.58;15.90;;;4.40;99.90;;;;;;5037177;28;20215;-73
2022/01/26 05:36:40;;;;;;;33.38;16.80;;;4.30;99.90;;;;;;5035516;28;20200;-74
2022/01/26 05:39:09;;;;;;;34.58;16.42;;;4.30;99.90;;;;;;5035264;28;20204;-72
2022/01/26 05:41:37;;;;;;;34.50;16.23;;;4.30;99.90;;;;;;5034572;28;20644;-73
2022/01/26 05:44:05;;;;;;;46.35;17.58;;;4.30;99.90;;;;;;5036055;28;20209;-73
2022/01/26 05:46:38;;;;;;;35.05;16.98;;;4.30;99.90;;;;;;5035110;28;20200;-72
2022/01/26 05:49:05;;;;;;;46.17;19.77;;;4.30;99.90;;;;;;5034791;28;20643;-72
2022/01/26 05:51:33;;;;;;;42.13;17.58;;;4.30;99.90;;;;;;5034233;28;20220;-72
2022/01/26 05:54:01;;;;;;;36.83;17.98;;;4.30;99.90;;;;;;5035338;28;20283;-74
2022/01/26 05:56:30;;;;;;;32.72;17.30;;;4.30;99.90;;;;;;5034480;28;20637;-73
2022/01/26 05:58:57;;;;;;;34.15;18.20;;;4.30;99.90;;;;;;5034256;28;20231;-77
2022/01/26 06:01:31;;;;;;;40.40;17.05;;;4.30;99.90;;;;;;5033745;28;20266;-74
2022/01/26 06:03:59;;;;;;;37.80;17.10;;;4.30;99.90;;;;;;5034275;28;20193;-72
2022/01/26 06:06:32;;;;;;;40.42;16.95;;;4.40;99.90;;;;;;5034646;28;20209;-75
2022/01/26 06:08:59;;;;;;;38.67;19.70;;;4.40;99.90;;;;;;5033467;28;20212;-75
2022/01/26 06:11:26;;;;;;;36.67;17.10;;;4.30;99.90;;;;;;5023401;28;20229;-74
2022/01/26 06:13:55;;;;;;;36.97;17.25;;;4.30;99.90;;;;;;5035445;28;20223;-73
2022/01/26 06:16:23;;;;;;;40.80;18.15;;;4.20;99.90;;;;;;5040814;28;20192;-72
2022/01/26 06:18:50;;;;;;;42.55;16.25;;;4.10;99.90;;;;;;5039782;28;20200;-74
2022/01/26 06:21:17;;;;;;;41.95;19.52;;;4.10;99.90;;;;;;5034960;28;20228;-75
2022/01/26 06:23:45;;;;;;;38.85;15.80;;;4.10;99.90;;;;;;5029273;28;20211;-72
2022/01/26 06:26:13;;;;;;;40.58;16.50;;;4.10;99.90;;;;;;5036607;28;20482;-75
2022/01/26 06:28:40;;;;;;;43.13;19.90;;;4.10;99.90;;;;;;5036753;28;20250;-75
2022/01/26 06:31:11;;;;;;;45.95;18.10;;;4.10;99.90;;;;;;5035560;28;20223;-72
2022/01/26 06:33:41;;;;;;;42.13;18.13;;;4.00;99.90;;;;;;5036491;28;20298;-71
2022/01/26 06:36:12;;;;;;;40.13;17.17;;;4.00;99.90;;;;;;5036406;28;20207;-71
2022/01/26 06:38:40;;;;;;;39.88;20.25;;;4.10;99.90;;;;;;5035009;28;20208;-75
2022/01/26 06:41:07;;;;;;;36.58;16.63;;;4.10;99.90;;;;;;5033993;28;20220;-75
2022/01/26 06:43:42;;;;;;;44.95;17.73;;;4.10;99.90;;;;;;5036260;28;20208;-73
2022/01/26 06:46:18;;;;;;;41.28;20.35;;;4.10;99.90;;;;;;5036102;28;20199;-74
2022/01/26 06:48:59;;;;;;;47.60;21.83;;;4.10;99.90;;;;;;5029182;28;20203;-73
2022/01/26 06:51:27;;;;;;;53.38;22.33;;;4.00;99.90;;;;;;5033842;28;20235;-71
2022/01/26 06:53:56;;;;;;;37.42;18.75;;;4.00;99.90;;;;;;5033992;28;20200;-72
2022/01/26 06:56:23;;;;;;;39.50;17.45;;;4.10;99.90;;;;;;5025884;28;20274;-73
2022/01/26 06:58:50;;;;;;;44.15;19.45;;;4.00;99.90;;;;;;5036120;28;20487;-75
2022/01/26 07:01:18;;;;;;;46.88;21.65;;;4.00;99.90;;;;;;5035093;28;20514;-75
2022/01/26 07:03:47;;;;;;;44.40;20.17;;;4.00;99.90;;;;;;5032586;28;20203;-75
2022/01/26 07:06:14;;;;;;;54.60;20.52;;;4.00;99.90;;;;;;5036402;28;20214;-73
2022/01/26 07:08:42;;;;;;;45.15;20.98;;;4.00;99.90;;;;;;5030795;28;20199;-73
2022/01/26 07:11:11;;;;;;;43.83;18.60;;;3.90;99.90;;;;;;5036135;28;20639;-74
2022/01/26 07:13:39;;;;;;;44.13;20.30;;;3.90;99.90;;;;;;5035233;28;20322;-75
2022/01/26 07:21:37;;;;;;;48.08;21.58;;;3.90;99.90;;;;;;5032641;28;20263;-75
2022/01/26 07:24:07;;;;;;;48.53;21.80;;;3.90;99.90;;;;;;5035869;28;20545;-73
2022/01/26 07:26:34;;;;;;;58.22;24.17;;;3.80;99.90;;;;;;5035197;28;20196;-74
2022/01/26 07:29:06;;;;;;;60.83;22.95;;;3.80;99.90;;;;;;5036804;28;20287;-74
2022/01/26 07:31:36;;;;;;;42.45;21.38;;;3.80;99.90;;;;;;5033058;28;20223;-73
2022/01/26 07:34:05;;;;;;;49.15;19.90;;;3.80;99.90;;;;;;5035097;28;20309;-76
2022/01/26 07:36:32;;;;;;;49.80;23.42;;;3.90;99.90;;;;;;5027633;28;20205;-73
2022/01/26 07:39:17;;;;;;;49.95;20.50;;;3.90;99.90;;;;;;5031364;28;20193;-74
2022/01/26 07:41:44;;;;;;;53.88;19.75;;;3.90;99.90;;;;;;5029465;28;20588;-73
2022/01/26 07:44:13;;;;;;;52.80;22.30;;;3.80;99.90;;;;;;5027912;28;20202;-70
2022/01/26 07:46:40;;;;;;;61.35;24.63;;;3.80;99.90;;;;;;5035319;28;20207;-74
2022/01/26 07:49:10;;;;;;;58.25;25.25;;;3.80;99.90;;;;;;5036500;28;20204;-74
2022/01/26 07:51:36;;;;;;;68.68;25.30;;;3.80;99.90;;;;;;5034390;28;20271;-74
2022/01/26 07:54:05;;;;;;;55.40;24.60;;;3.80;99.90;;;;;;5035798;28;20200;-71
2022/01/26 07:56:32;;;;;;;66.32;27.55;;;3.70;99.90;;;;;;5029104;28;20203;-73
2022/01/26 07:58:59;;;;;;;67.10;25.35;;;3.70;99.90;;;;;;5036956;28;20192;-72
2022/01/26 08:01:26;;;;;;;61.92;27.10;;;3.70;99.90;;;;;;5037345;28;20239;-71
2022/01/26 08:03:53;;;;;;;59.63;28.50;;;3.70;99.90;;;;;;5036619;28;20254;-74
2022/01/26 08:06:22;;;;;;;61.03;25.67;;;3.70;99.90;;;;;;5031065;28;20511;-73
2022/01/26 08:08:49;;;;;;;77.68;29.63;;;3.70;99.90;;;;;;5036203;28;20653;-74
2022/01/26 08:11:16;;;;;;;76.97;29.92;;;3.70;99.90;;;;;;5040063;28;20216;-73
2022/01/26 08:13:44;;;;;;;64.38;28.33;;;3.60;99.90;;;;;;5037061;28;20266;-74
2022/01/26 08:16:11;;;;;;;67.85;29.77;;;3.60;99.90;;;;;;5035211;28;20235;-73
2022/01/26 08:18:38;;;;;;;68.60;27.98;;;3.60;99.90;;;;;;5035272;28;20212;-75
2022/01/26 08:21:06;;;;;;;79.65;27.98;;;3.60;99.90;;;;;;5028343;28;20311;-74
2022/01/26 08:23:36;;;;;;;75.25;33.58;;;3.60;99.90;;;;;;5033672;28;20200;-72
2022/01/26 08:26:04;;;;;;;69.65;28.80;;;3.60;99.90;;;;;;5034720;28;20193;-72
2022/01/26 08:28:35;;;;;;;77.30;28.10;;;3.80;99.90;;;;;;5040179;28;20200;-74
2022/01/26 08:31:15;;;;;;;61.42;26.02;;;3.80;99.90;;;;;;5028056;28;20215;-75
2022/01/26 08:33:42;;;;;;;55.05;26.73;;;3.80;99.90;;;;;;5026044;28;20196;-75
2022/01/26 08:36:09;;;;;;;59.83;27.00;;;3.90;99.90;;;;;;5022841;28;20506;-74
2022/01/26 08:38:38;;;;;;;74.53;27.23;;;3.80;99.90;;;;;;5028547;28;20218;-73
2022/01/26 08:41:05;;;;;;;72.85;29.23;;;3.80;99.90;;;;;;5024088;28;20278;-74
2022/01/26 08:43:32;;;;;;;66.18;26.70;;;3.80;99.90;;;;;;5020441;28;20628;-72
2022/01/26 08:45:59;;;;;;;75.82;29.17;;;3.80;99.90;;;;;;5029361;28;20205;-75
2022/01/26 08:48:27;;;;;;;81.70;27.85;;;3.80;99.90;;;;;;5039170;28;20253;-76
2022/01/26 08:50:54;;;;;;;65.82;28.55;;;3.90;99.90;;;;;;5037999;28;20354;-74
2022/01/26 08:53:23;;;;;;;75.75;29.48;;;3.90;99.90;;;;;;5030891;28;20216;-73
2022/01/26 08:55:52;;;;;;;66.55;28.63;;;3.90;99.90;;;;;;5039221;28;20254;-75
2022/01/26 08:58:19;;;;;;;77.13;27.85;;;3.90;99.90;;;;;;5039302;28;20200;-72
2022/01/26 09:00:46;;;;;;;59.30;26.52;;;3.90;99.90;;;;;;5037410;28;20207;-73
2022/01/26 09:03:15;;;;;;;67.22;26.02;;;3.90;99.90;;;;;;5038325;28;20192;-74
2022/01/26 09:05:42;;;;;;;64.40;27.38;;;3.80;99.90;;;;;;5039313;28;20211;-75
2022/01/26 09:08:09;;;;;;;56.05;23.30;;;3.70;99.90;;;;;;5038132;28;20564;-71
2022/01/26 09:10:39;;;;;;;61.08;25.70;;;3.70;99.90;;;;;;5033046;28;20456;-74
2022/01/26 09:13:07;;;;;;;62.13;24.17;;;3.70;99.90;;;;;;5030417;28;20208;-74
2022/01/26 09:15:35;;;;;;;62.00;26.73;;;3.80;99.90;;;;;;5036229;28;20210;-75
2022/01/26 09:18:04;;;;;;;65.43;26.55;;;3.70;99.90;;;;;;5024304;28;20210;-70
2022/01/26 09:20:34;;;;;;;65.35;24.88;;;3.70;99.90;;;;;;5037858;28;20196;-72
2022/01/26 09:23:01;;;;;;;67.13;26.95;;;3.70;99.90;;;;;;5038173;28;20235;-74
2022/01/26 09:25:29;;;;;;;65.82;23.05;;;3.80;99.90;;;;;;5038149;28;20211;-71
2022/01/26 09:27:56;;;;;;;59.95;23.50;;;3.80;99.90;;;;;;5038058;28;20205;-73
2022/01/26 09:30:25;;;;;;;61.88;26.08;;;3.80;99.90;;;;;;5037145;28;20296;-72
2022/01/26 09:32:52;;;;;;;59.53;26.20;;;3.80;99.90;;;;;;5040025;28;20227;-74
2022/01/26 09:35:19;;;;;;;59.55;24.20;;;3.80;99.90;;;;;;5037476;28;20216;-71
2022/01/26 09:37:46;;;;;;;85.15;30.95;;;3.70;99.90;;;;;;5046548;28;20208;-73
2022/01/26 09:40:13;;;;;;;63.92;27.48;;;3.70;99.90;;;;;;5048363;28;20254;-72
2022/01/26 09:42:42;;;;;;;63.25;24.70;;;3.60;99.90;;;;;;5043902;28;20224;-76
2022/01/26 09:45:11;;;;;;;64.68;29.27;;;3.70;99.90;;;;;;5035423;28;20200;-73
2022/01/26 09:47:41;;;;;;;82.15;28.42;;;3.80;99.90;;;;;;5037860;28;20619;-75
2022/01/26 09:50:08;;;;;;;68.60;30.48;;;3.80;99.90;;;;;;5033599;28;20549;-74
2022/01/26 09:52:40;;;;;;;72.13;28.17;;;3.80;99.90;;;;;;5037526;28;20220;-71
2022/01/26 09:55:09;;;;;;;75.70;27.35;;;3.90;99.90;;;;;;5030817;28;20279;-77
2022/01/26 09:57:38;;;;;;;68.18;29.17;;;3.80;99.90;;;;;;5036796;28;20268;-73
2022/01/26 10:00:07;;;;;;;67.07;30.73;;;3.90;99.90;;;;;;5037357;28;20196;-73
2022/01/26 10:02:36;;;;;;;70.80;31.80;;;3.80;99.90;;;;;;5035785;28;20230;-73
2022/01/26 10:05:07;;;;;;;65.80;28.83;;;3.80;99.90;;;;;;5032935;28;20207;-74
2022/01/26 10:07:48;;;;;;;73.35;28.95;;;3.80;99.90;;;;;;5029796;28;20556;-71
2022/01/26 10:15:26;;;;;;;73.25;30.52;;;3.80;99.90;;;;;;5037419;28;20505;-75
2022/01/26 10:16:18;;;;;;;71.22;30.75;;;3.70;99.90;;;;;;5032235;28;20617;-71
2022/01/26 10:18:50;;;;;;;89.47;36.42;;;3.80;99.90;;;;;;5042737;28;20211;-72
2022/01/26 10:21:19;;;;;;;73.53;30.70;;;3.90;99.90;;;;;;5039060;28;20235;-71
2022/01/26 10:23:47;;;;;;;68.53;31.13;;;3.90;99.90;;;;;;5037444;28;20208;-75
2022/01/26 10:26:16;;;;;;;81.47;34.47;;;3.90;99.90;;;;;;5037365;28;20216;-72
2022/01/26 10:28:45;;;;;;;82.70;33.72;;;3.90;99.90;;;;;;5034049;28;20197;-75
2022/01/26 10:31:17;;;;;;;79.85;34.15;;;3.90;99.90;;;;;;5036726;28;20220;-74
2022/01/26 10:33:55;;;;;;;85.97;35.65;;;3.90;99.90;;;;;;5023445;28;20232;-75
2022/01/26 10:36:24;;;;;;;72.78;34.35;;;4.00;99.90;;;;;;5032910;28;20212;-76
2022/01/26 10:38:59;;;;;;;83.35;35.00;;;4.00;99.90;;;;;;5036846;28;20619;-71
2022/01/26 10:41:26;;;;;;;79.30;33.70;;;4.00;99.90;;;;;;5035778;28;20231;-73
2022/01/26 10:43:56;;;;;;;86.72;32.92;;;3.90;99.90;;;;;;5036508;28;20200;-74
2022/01/26 10:46:29;;;;;;;79.72;33.15;;;3.90;99.90;;;;;;5034081;28;20207;-72
2022/01/26 10:49:14;;;;;;;86.43;35.42;;;3.90;99.90;;;;;;5031311;28;20289;-75
2022/01/26 10:51:59;;;;;;;101.90;40.30;;;4.00;99.90;;;;;;5033256;28;20216;-74
2022/01/26 10:54:36;;;;;;;93.57;37.33;;;4.00;99.90;;;;;;5037656;28;20204;-72
2022/01/26 10:57:04;;;;;;;86.95;35.35;;;4.10;99.90;;;;;;5036853;28;20213;-73
2022/01/26 10:59:33;;;;;;;89.68;37.03;;;4.10;99.90;;;;;;5035770;28;20259;-74
2022/01/26 11:02:02;;;;;;;81.40;32.50;;;4.10;99.90;;;;;;5036983;28;20220;-74
2022/01/26 11:04:29;;;;;;;77.05;34.92;;;4.10;99.90;;;;;;5036838;28;20196;-73
2022/01/26 11:06:58;;;;;;;93.63;33.42;;;4.10;99.90;;;;;;5036500;28;20211;-73
2022/01/26 11:09:29;;;;;;;88.60;37.08;;;4.10;99.90;;;;;;5036079;28;20216;-71
2022/01/26 11:12:03;;;;;;;81.60;35.20;;;4.10;99.90;;;;;;5027635;28;20216;-76
2022/01/26 11:14:41;;;;;;;94.47;34.60;;;4.10;99.90;;;;;;5030156;28;20196;-73
2022/01/26 11:17:09;;;;;;;99.07;37.45;;;4.20;99.90;;;;;;5036621;28;20575;-73
2022/01/26 11:19:44;;;;;;;90.53;40.88;;;4.20;99.90;;;;;;5035721;28;20209;-74
2022/01/26 11:22:15;;;;;;;91.30;38.78;;;4.20;99.90;;;;;;5033072;28;20294;-73
2022/01/26 11:24:46;;;;;;;88.53;36.22;;;4.20;99.90;;;;;;5035290;28;20333;-77
2022/01/26 11:27:15;;;;;;;90.00;35.97;;;4.20;99.90;;;;;;5032329;28;20553;-75
2022/01/26 11:29:46;;;;;;;100.30;39.17;;;4.20;99.90;;;;;;5041228;28;20193;-72
2022/01/26 11:32:19;;;;;;;87.07;37.80;;;4.10;99.90;;;;;;5036293;28;20234;-72
2022/01/26 11:34:50;;;;;;;85.68;34.65;;;4.10;99.90;;;;;;5032150;28;20561;-75
2022/01/26 11:37:27;;;;;;;90.57;38.00;;;4.20;99.90;;;;;;5036103;28;20212;-75
2022/01/26 11:45:35;;;;;;;100.38;37.63;;;4.10;99.90;;;;;;5028083;28;20188;-74
2022/01/26 11:48:05;;;;;;;95.05;38.42;;;4.10;99.90;;;;;;5033925;28;20203;-72
2022/01/26 11:50:33;;;;;;;104.63;39.90;;;4.00;99.90;;;;;;5034318;28;20208;-75
2022/01/26 11:53:04;;;;;;;95.55;36.90;;;4.10;99.90;;;;;;5036077;28;20258;-71
2022/01/26 11:55:41;;;;;;;78.55;32.53;;;4.10;99.90;;;;;;5038013;28;20236;-73
2022/01/26 11:58:14;;;;;;;103.63;38.78;;;4.10;99.90;;;;;;5029353;28;20310;-72
2022/01/26 12:00:54;;;;;;;90.95;37.35;;;4.00;99.90;;;;;;5034644;28;20234;-75
2022/01/26 12:03:26;;;;;;;89.00;36.42;;;4.10;99.90;;;;;;5030958;28;20231;-73
2022/01/26 12:05:56;;;;;;;94.72;34.83;;;4.10;99.90;;;;;;5035671;28;20604;-76
2022/01/26 12:08:34;;;;;;;86.53;39.75;;;4.20;99.90;;;;;;5039334;28;20197;-74
2022/01/26 12:11:02;;;;;;;93.88;37.72;;;4.20;99.90;;;;;;5047375;28;20246;-76
2022/01/26 12:13:35;;;;;;;84.70;37.63;;;4.30;99.90;;;;;;5042866;28;20192;-73
2022/01/26 12:16:09;;;;;;;86.10;35.95;;;4.30;99.90;;;;;;5034126;28;20219;-77
2022/01/26 12:18:41;;;;;;;99.55;37.00;;;4.20;99.90;;;;;;5039836;28;20240;-77
2022/01/26 12:32:45;;;;;;;99.55;38.70;;;4.20;99.90;;;;;;5039641;28;20250;-73
2022/01/26 12:35:33;;;;;;;94.50;40.25;;;4.30;99.90;;;;;;5036553;28;20224;-72
2022/01/26 12:38:08;;;;;;;106.90;42.08;;;4.30;99.90;;;;;;5032786;28;20215;-74
2022/01/26 12:43:35;;;;;;;97.07;40.25;;;4.20;99.90;;;;;;5037878;28;20274;-75
2022/01/26 12:46:04;;;;;;;97.03;37.10;;;4.20;99.90;;;;;;5039231;28;20279;-75
2022/01/26 12:48:34;;;;;;;96.40;39.58;;;4.30;99.90;;;;;;5040368;28;20198;-76
2022/01/26 12:51:02;;;;;;;107.53;42.25;;;4.30;99.90;;;;;;5040126;28;20648;-74
2022/01/26 12:53:32;;;;;;;100.68;40.17;;;4.40;99.90;;;;;;5039000;28;20204;-75
2022/01/26 12:56:02;;;;;;;106.43;43.50;;;4.30;99.90;;;;;;5032168;28;20219;-76
2022/01/26 12:58:32;;;;;;;99.20;41.20;;;4.40;99.90;;;;;;5036714;28;20208;-74
2022/01/26 13:01:06;;;;;;;119.35;48.83;;;4.30;99.90;;;;;;5037567;28;20505;-75
2022/01/26 13:03:35;;;;;;;117.28;42.28;;;4.30;99.90;;;;;;5036968;28;20203;-76
2022/01/26 13:06:10;;;;;;;118.38;45.63;;;4.30;99.90;;;;;;5042463;28;20449;-75
2022/01/26 13:08:57;;;;;;;111.30;43.58;;;4.30;99.90;;;;;;5039951;28;20204;-77
2022/01/26 13:11:27;;;;;;;117.47;44.60;;;4.20;99.90;;;;;;5038070;28;20227;-72
2022/01/26 13:14:11;;;;;;;113.45;44.72;;;4.30;99.90;;;;;;5039192;28;20207;-74
2022/01/26 13:16:40;;;;;;;113.55;44.53;;;4.20;99.90;;;;;;5047996;28;20208;-72
2022/01/26 13:19:20;;;;;;;137.55;45.05;;;4.30;99.90;;;;;;5022944;28;20229;-74
2022/01/26 13:22:05;;;;;;;114.95;45.25;;;4.30;99.90;;;;;;5023967;28;20328;-73
2022/01/26 13:24:56;;;;;;;115.00;43.30;;;4.40;99.90;;;;;;5037674;28;20200;-74
2022/01/26 13:27:36;;;;;;;114.10;39.85;;;4.50;99.90;;;;;;5031824;28;20250;-72
2022/01/26 13:30:19;;;;;;;117.60;43.28;;;4.40;99.90;;;;;;5038535;28;20200;-74
2022/01/26 13:38:46;;;;;;;130.20;47.63;;;4.50;99.90;;;;;;4988174;28;20655;-74
2022/01/26 13:41:26;;;;;;;113.38;44.50;;;4.40;99.90;;;;;;5008465;28;20246;-78
2022/01/26 13:44:33;;;;;;;113.22;41.20;;;4.50;99.90;;;;;;5032123;28;20302;-75
2022/01/26 13:49:58;;;;;;;114.32;44.58;;;4.50;99.90;;;;;;5033294;28;20204;-76
2022/01/26 13:52:40;;;;;;;114.22;43.05;;;4.50;99.90;;;;;;5038306;28;20216;-74
2022/01/26 14:00:41;;;;;;;111.47;44.38;;;4.60;99.90;;;;;;5039927;28;20207;-73
2022/01/26 14:03:11;;;;;;;125.93;45.80;;;4.60;99.90;;;;;;5039244;28;20247;-73
2022/01/26 14:05:38;;;;;;;114.78;46.65;;;4.60;99.90;;;;;;5037275;28;20236;-74
2022/01/26 14:08:06;;;;;;;124.00;46.40;;;4.70;99.90;;;;;;5033130;28;20193;-75
2022/01/26 14:10:34;;;;;;;108.35;44.88;;;4.70;99.90;;;;;;5036703;28;20262;-73
2022/01/26 14:13:01;;;;;;;107.95;42.95;;;4.70;99.90;;;;;;5036932;28;20216;-74
2022/01/26 14:15:39;;;;;;;113.05;45.17;;;4.70;99.90;;;;;;5033929;28;20212;-76
2022/01/26 14:18:33;;;;;;;119.18;43.20;;;4.70;99.90;;;;;;5037311;28;20199;-74
2022/01/26 14:21:08;;;;;;;104.75;40.15;;;4.70;99.90;;;;;;5035724;28;20200;-75
2022/01/26 14:23:58;;;;;;;107.60;41.70;;;4.80;99.90;;;;;;5038102;28;20234;-74
2022/01/26 14:26:29;;;;;;;85.88;37.30;;;4.80;99.90;;;;;;5035366;28;20619;-73
2022/01/26 14:28:59;;;;;;;98.65;41.63;;;4.90;99.90;;;;;;5045158;28;20232;-75
2022/01/26 14:31:50;;;;;;;103.03;40.92;;;4.90;99.90;;;;;;5036414;28;20319;-75
2022/01/26 14:34:50;;;;;;;96.00;39.38;;;4.90;99.90;;;;;;5032068;28;20212;-75
2022/01/26 14:40:31;;;;;;;92.60;39.38;;;5.00;99.90;;;;;;4998512;28;20209;-81
2022/01/26 14:51:36;;;;;;;91.18;36.28;;;5.00;99.90;;;;;;4989342;28;20197;-80
2022/01/26 15:11:59;;;;;;;93.55;36.75;;;5.20;99.90;;;;;;5014495;28;20231;-83
2022/01/26 15:30:13;;;;;;;84.15;37.10;;;5.00;99.90;;;;;;5013563;28;20192;-79
2022/01/26 15:35:41;;;;;;;78.78;36.22;;;5.00;99.90;;;;;;5012477;28;20631;-83
2022/01/26 15:41:08;;;;;;;85.32;35.78;;;5.00;99.90;;;;;;5011373;28;20196;-81
2022/01/26 15:43:53;;;;;;;86.40;35.97;;;5.00;99.90;;;;;;5006610;28;20763;-80
2022/01/26 15:49:40;;;;;;;77.60;35.75;;;5.10;99.90;;;;;;5027752;28;20200;-79
2022/01/26 15:52:16;;;;;;;81.38;36.78;;;5.10;99.90;;;;;;5010991;28;20189;-83
2022/01/26 16:06:13;;;;;;;81.97;38.63;;;5.10;99.90;;;;;;4975251;28;20371;-82
2022/01/26 16:20:01;;;;;;;84.75;36.97;;;5.10;99.90;;;;;;5021644;28;20201;-80
2022/01/26 16:44:20;;;;;;;80.07;33.45;;;5.20;99.90;;;;;;5004568;28;20178;-82
2022/01/26 17:24:36;;;;;;;74.78;34.30;;;5.30;99.90;;;;;;5121943;28;20216;-70
2022/01/26 18:06:55;;;;;;;81.43;36.97;;;5.40;99.90;;;;;;5131810;28;20181;-74
2022/01/26 18:16:48;;;;;;;98.97;37.17;;;5.40;99.90;;;;;;5122758;28;20173;-75
2022/01/26 18:33:02;;;;;;;78.57;35.40;;;5.30;99.90;;;;;;5100572;28;20311;-74
2022/01/26 18:46:56;;;;;;;81.93;39.35;;;5.40;99.90;;;;;;5096740;28;20417;-73
2022/01/26 18:49:24;;;;;;;92.68;38.35;;;5.30;99.90;;;;;;5104313;28;20392;-73
2022/01/26 18:51:53;;;;;;;82.68;35.92;;;5.30;99.90;;;;;;5097300;28;20278;-76
2022/01/26 18:54:24;;;;;;;78.53;35.38;;;5.30;99.90;;;;;;5104326;28;20216;-76
2022/01/26 18:56:52;;;;;;;70.68;33.22;;;5.30;99.90;;;;;;5102218;28;20278;-74
2022/01/26 18:59:20;;;;;;;81.35;33.38;;;5.30;99.90;;;;;;5104931;28;20249;-70
2022/01/26 19:01:47;;;;;;;86.63;33.78;;;5.30;99.90;;;;;;5099726;28;20332;-72
2022/01/26 19:04:16;;;;;;;87.53;36.88;;;5.30;99.90;;;;;;5098216;28;20183;-72
2022/01/26 19:06:49;;;;;;;96.85;36.05;;;5.30;99.90;;;;;;5098625;28;20194;-75
2022/01/26 19:09:18;;;;;;;77.18;34.08;;;5.30;99.90;;;;;;5100430;28;20279;-73
2022/01/26 19:11:46;;;;;;;92.25;38.53;;;5.20;99.90;;;;;;5103935;28;20206;-73
2022/01/26 19:14:13;;;;;;;92.78;39.50;;;5.20;99.90;;;;;;5098027;28;20336;-81
2022/01/26 19:16:45;;;;;;;90.18;37.08;;;5.20;99.90;;;;;;5116461;28;20304;-78
2022/01/26 19:19:23;;;;;;;87.47;37.47;;;5.30;99.90;;;;;;5111954;28;20190;-79
2022/01/26 19:22:13;;;;;;;86.75;36.95;;;5.30;99.90;;;;;;5103484;28;20205;-73
2022/01/26 19:24:56;;;;;;;96.68;39.38;;;5.20;99.90;;;;;;5095650;28;20176;-70
2022/01/26 19:27:29;;;;;;;97.05;47.03;;;5.30;99.90;;;;;;5098362;28;20418;-73
2022/01/26 19:30:24;;;;;;;108.82;42.95;;;5.30;99.90;;;;;;5095857;28;20190;-74
2022/01/26 19:33:08;;;;;;;91.00;38.63;;;5.30;99.90;;;;;;5099539;28;20202;-73
2022/01/26 19:44:01;;;;;;;111.65;43.80;;;5.20;99.90;;;;;;5095299;28;20205;-71
2022/01/26 19:46:33;;;;;;;111.10;41.50;;;5.30;99.90;;;;;;5095282;28;20194;-72
2022/01/26 19:52:01;;;;;;;96.45;37.35;;;5.30;99.90;;;;;;5098127;28;20325;-75
2022/01/26 19:54:28;;;;;;;82.35;33.92;;;5.40;99.90;;;;;;5100821;28;20259;-71
2022/01/26 19:56:55;;;;;;;72.07;36.33;;;5.30;99.90;;;;;;5094599;28;20198;-72
2022/01/26 19:59:23;;;;;;;79.07;37.00;;;5.30;99.90;;;;;;5097780;28;20467;-74
2022/01/26 20:01:50;;;;;;;95.97;40.28;;;5.40;99.90;;;;;;5095385;28;20203;-73
2022/01/26 20:04:17;;;;;;;90.15;38.45;;;5.40;99.90;;;;;;5102200;28;20206;-72
2022/01/26 20:06:44;;;;;;;84.57;35.42;;;5.40;99.90;;;;;;5096059;28;20191;-73
2022/01/26 20:09:17;;;;;;;90.60;37.50;;;5.40;99.90;;;;;;5098113;28;20209;-73
2022/01/26 20:11:53;;;;;;;76.53;33.38;;;5.50;99.90;;;;;;5100007;28;20371;-71
2022/01/26 20:14:24;;;;;;;75.57;36.65;;;5.50;99.90;;;;;;5091745;28;20206;-74
2022/01/26 20:16:52;;;;;;;78.63;35.67;;;5.60;99.90;;;;;;5096809;28;20205;-72
2022/01/26 20:19:19;;;;;;;76.70;34.78;;;5.50;99.90;;;;;;5102389;28;20187;-72